sensor_id;sensor_type;location;lat;lon;timestamp;P1;durP1;ratioP1;P2;durP2;ratioP2
37609;SDS011;23457;51.966;8.230;2023-08-06T00:01:10;14.40;;;6.68;;
37609;SDS011;23457;51.966;8.230;2023-08-06T00:03:37;10.40;;;7.00;;
37609;SDS011;23457;51.966;8.230;2023-08-06T00:06:07;8.52;;;7.05;;
37609;SDS011;23457;51.966;8.230;2023-08-06T00:08:34;10.63;;;7.25;;
37609;SDS011;23457;51.966;8.230;2023-08-06T00:11:00;10.73;;;6.70;;
37609;SDS011;23457;51.966;8.230;2023-08-06T00:13:27;8.23;;;6.82;;
37609;SDS011;23457;51.966;8.230;2023-08-06T00:15:54;11.07;;;7.65;;
37609;SDS011;23457;51.966;8.230;2023-08-06T00:18:21;9.13;;;6.43;;
37609;SDS011;23457;51.966;8.230;2023-08-06T00:20:47;10.50;;;7.03;;
37609;SDS011;23457;51.966;8.230;2023-08-06T00:23:14;9.23;;;6.78;;
37609;SDS011;23457;51.966;8.230;2023-08-06T00:25:41;11.48;;;7.03;;
37609;SDS011;23457;51.966;8.230;2023-08-06T00:28:08;9.07;;;6.63;;
37609;SDS011;23457;51.966;8.230;2023-08-06T00:30:34;11.07;;;7.68;;
37609;SDS011;23457;51.966;8.230;2023-08-06T00:33:01;10.45;;;6.95;;
37609;SDS011;23457;51.966;8.230;2023-08-06T00:35:29;10.27;;;6.50;;
37609;SDS011;23457;51.966;8.230;2023-08-06T00:37:56;11.65;;;7.18;;
37609;SDS011;23457;51.966;8.230;2023-08-06T00:40:23;7.82;;;6.28;;
37609;SDS011;23457;51.966;8.230;2023-08-06T00:42:49;9.55;;;7.07;;
37609;SDS011;23457;51.966;8.230;2023-08-06T00:45:16;8.20;;;6.82;;
37609;SDS011;23457;51.966;8.230;2023-08-06T00:47:43;11.00;;;7.43;;
37609;SDS011;23457;51.966;8.230;2023-08-06T00:50:13;8.52;;;6.38;;
37609;SDS011;23457;51.966;8.230;2023-08-06T00:52:40;8.73;;;7.10;;
37609;SDS011;23457;51.966;8.230;2023-08-06T00:55:08;10.18;;;6.97;;
37609;SDS011;23457;51.966;8.230;2023-08-06T01:00:04;10.35;;;7.03;;
37609;SDS011;23457;51.966;8.230;2023-08-06T01:02:31;8.57;;;7.03;;
37609;SDS011;23457;51.966;8.230;2023-08-06T01:04:58;9.25;;;6.25;;
37609;SDS011;23457;51.966;8.230;2023-08-06T01:07:29;10.55;;;6.93;;
37609;SDS011;23457;51.966;8.230;2023-08-06T01:10:11;11.43;;;6.80;;
37609;SDS011;23457;51.966;8.230;2023-08-06T01:12:45;9.35;;;6.72;;
37609;SDS011;23457;51.966;8.230;2023-08-06T01:15:30;12.50;;;6.55;;
37609;SDS011;23457;51.966;8.230;2023-08-06T01:18:02;11.27;;;6.85;;
37609;SDS011;23457;51.966;8.230;2023-08-06T01:20:29;10.57;;;6.63;;
37609;SDS011;23457;51.966;8.230;2023-08-06T01:22:56;9.57;;;6.22;;
37609;SDS011;23457;51.966;8.230;2023-08-06T01:25:26;14.48;;;6.40;;
37609;SDS011;23457;51.966;8.230;2023-08-06T01:31:03;11.32;;;6.22;;
37609;SDS011;23457;51.966;8.230;2023-08-06T01:33:33;14.82;;;8.75;;
37609;SDS011;23457;51.966;8.230;2023-08-06T01:36:03;11.25;;;7.00;;
37609;SDS011;23457;51.966;8.230;2023-08-06T01:38:32;12.85;;;6.35;;
37609;SDS011;23457;51.966;8.230;2023-08-06T01:40:59;7.70;;;6.38;;
37609;SDS011;23457;51.966;8.230;2023-08-06T01:43:25;9.90;;;6.13;;
37609;SDS011;23457;51.966;8.230;2023-08-06T01:45:52;10.32;;;6.47;;
37609;SDS011;23457;51.966;8.230;2023-08-06T01:48:19;13.38;;;6.15;;
37609;SDS011;23457;51.966;8.230;2023-08-06T01:50:46;6.78;;;6.05;;
37609;SDS011;23457;51.966;8.230;2023-08-06T01:53:12;7.50;;;6.22;;
37609;SDS011;23457;51.966;8.230;2023-08-06T01:55:39;9.98;;;6.50;;
37609;SDS011;23457;51.966;8.230;2023-08-06T01:58:06;9.43;;;6.43;;
37609;SDS011;23457;51.966;8.230;2023-08-06T02:00:33;9.05;;;6.43;;
37609;SDS011;23457;51.966;8.230;2023-08-06T02:02:59;7.72;;;6.38;;
37609;SDS011;23457;51.966;8.230;2023-08-06T02:05:26;12.00;;;7.47;;
37609;SDS011;23457;51.966;8.230;2023-08-06T02:07:56;10.30;;;7.72;;
37609;SDS011;23457;51.966;8.230;2023-08-06T02:10:22;11.40;;;7.00;;
37609;SDS011;23457;51.966;8.230;2023-08-06T02:12:49;12.40;;;8.38;;
37609;SDS011;23457;51.966;8.230;2023-08-06T02:15:16;13.77;;;7.97;;
37609;SDS011;23457;51.966;8.230;2023-08-06T02:17:43;10.50;;;7.32;;
37609;SDS011;23457;51.966;8.230;2023-08-06T02:20:13;12.13;;;7.10;;
37609;SDS011;23457;51.966;8.230;2023-08-06T02:22:40;14.70;;;9.23;;
37609;SDS011;23457;51.966;8.230;2023-08-06T02:25:07;10.38;;;7.65;;
37609;SDS011;23457;51.966;8.230;2023-08-06T02:27:34;10.88;;;7.50;;
37609;SDS011;23457;51.966;8.230;2023-08-06T02:30:01;9.35;;;7.25;;
37609;SDS011;23457;51.966;8.230;2023-08-06T02:32:29;10.98;;;7.07;;
37609;SDS011;23457;51.966;8.230;2023-08-06T02:34:59;13.90;;;8.13;;
37609;SDS011;23457;51.966;8.230;2023-08-06T02:37:26;10.88;;;7.60;;
37609;SDS011;23457;51.966;8.230;2023-08-06T02:39:52;10.20;;;7.50;;
37609;SDS011;23457;51.966;8.230;2023-08-06T02:42:19;9.05;;;7.55;;
37609;SDS011;23457;51.966;8.230;2023-08-06T02:44:46;16.40;;;8.10;;
37609;SDS011;23457;51.966;8.230;2023-08-06T02:47:13;11.68;;;7.82;;
37609;SDS011;23457;51.966;8.230;2023-08-06T02:49:40;12.38;;;8.30;;
37609;SDS011;23457;51.966;8.230;2023-08-06T02:52:07;9.68;;;7.70;;
37609;SDS011;23457;51.966;8.230;2023-08-06T02:54:34;12.05;;;7.45;;
37609;SDS011;23457;51.966;8.230;2023-08-06T02:57:00;12.70;;;7.55;;
37609;SDS011;23457;51.966;8.230;2023-08-06T03:02:18;9.13;;;6.88;;
37609;SDS011;23457;51.966;8.230;2023-08-06T03:04:59;9.88;;;7.20;;
37609;SDS011;23457;51.966;8.230;2023-08-06T03:07:31;9.60;;;7.55;;
37609;SDS011;23457;51.966;8.230;2023-08-06T03:10:06;9.27;;;7.15;;
37609;SDS011;23457;51.966;8.230;2023-08-06T03:12:34;9.98;;;6.57;;
37609;SDS011;23457;51.966;8.230;2023-08-06T03:15:02;8.13;;;6.95;;
37609;SDS011;23457;51.966;8.230;2023-08-06T03:17:29;9.85;;;6.80;;
37609;SDS011;23457;51.966;8.230;2023-08-06T03:19:57;9.20;;;6.07;;
37609;SDS011;23457;51.966;8.230;2023-08-06T03:22:24;7.00;;;6.18;;
37609;SDS011;23457;51.966;8.230;2023-08-06T03:24:51;10.13;;;6.43;;
37609;SDS011;23457;51.966;8.230;2023-08-06T03:27:20;7.63;;;6.88;;
37609;SDS011;23457;51.966;8.230;2023-08-06T03:29:49;9.32;;;6.78;;
37609;SDS011;23457;51.966;8.230;2023-08-06T03:34:46;9.23;;;5.60;;
37609;SDS011;23457;51.966;8.230;2023-08-06T03:37:13;7.20;;;6.15;;
37609;SDS011;23457;51.966;8.230;2023-08-06T03:39:40;10.85;;;6.55;;
37609;SDS011;23457;51.966;8.230;2023-08-06T03:42:07;7.85;;;5.68;;
37609;SDS011;23457;51.966;8.230;2023-08-06T03:44:36;10.82;;;5.82;;
37609;SDS011;23457;51.966;8.230;2023-08-06T03:47:06;14.25;;;6.72;;
37609;SDS011;23457;51.966;8.230;2023-08-06T03:49:33;7.32;;;5.90;;
37609;SDS011;23457;51.966;8.230;2023-08-06T03:51:59;10.50;;;6.78;;
37609;SDS011;23457;51.966;8.230;2023-08-06T03:54:26;11.23;;;6.60;;
37609;SDS011;23457;51.966;8.230;2023-08-06T03:56:53;7.53;;;6.43;;
37609;SDS011;23457;51.966;8.230;2023-08-06T03:59:20;9.75;;;7.25;;
37609;SDS011;23457;51.966;8.230;2023-08-06T04:01:47;9.52;;;6.20;;
37609;SDS011;23457;51.966;8.230;2023-08-06T04:04:14;6.88;;;6.18;;
37609;SDS011;23457;51.966;8.230;2023-08-06T04:06:41;12.88;;;7.35;;
37609;SDS011;23457;51.966;8.230;2023-08-06T04:09:07;11.95;;;7.22;;
37609;SDS011;23457;51.966;8.230;2023-08-06T04:11:34;7.22;;;6.20;;
37609;SDS011;23457;51.966;8.230;2023-08-06T04:14:01;7.65;;;6.68;;
37609;SDS011;23457;51.966;8.230;2023-08-06T04:16:29;8.32;;;6.90;;
37609;SDS011;23457;51.966;8.230;2023-08-06T04:18:56;7.30;;;6.60;;
37609;SDS011;23457;51.966;8.230;2023-08-06T04:21:24;9.25;;;7.38;;
37609;SDS011;23457;51.966;8.230;2023-08-06T04:23:51;8.35;;;7.00;;
37609;SDS011;23457;51.966;8.230;2023-08-06T04:26:18;10.07;;;7.43;;
37609;SDS011;23457;51.966;8.230;2023-08-06T04:28:45;10.63;;;6.80;;
37609;SDS011;23457;51.966;8.230;2023-08-06T04:31:11;9.13;;;6.97;;
37609;SDS011;23457;51.966;8.230;2023-08-06T04:33:40;9.48;;;7.13;;
37609;SDS011;23457;51.966;8.230;2023-08-06T04:36:11;10.70;;;6.85;;
37609;SDS011;23457;51.966;8.230;2023-08-06T04:38:38;12.95;;;6.80;;
37609;SDS011;23457;51.966;8.230;2023-08-06T04:41:05;9.45;;;7.05;;
37609;SDS011;23457;51.966;8.230;2023-08-06T04:43:31;10.65;;;6.80;;
37609;SDS011;23457;51.966;8.230;2023-08-06T04:45:58;9.75;;;7.32;;
37609;SDS011;23457;51.966;8.230;2023-08-06T04:48:25;8.02;;;6.90;;
37609;SDS011;23457;51.966;8.230;2023-08-06T04:50:52;11.20;;;6.95;;
37609;SDS011;23457;51.966;8.230;2023-08-06T04:53:19;10.52;;;6.65;;
37609;SDS011;23457;51.966;8.230;2023-08-06T04:55:46;10.52;;;7.38;;
37609;SDS011;23457;51.966;8.230;2023-08-06T04:58:12;8.85;;;7.10;;
37609;SDS011;23457;51.966;8.230;2023-08-06T05:00:39;10.32;;;6.68;;
37609;SDS011;23457;51.966;8.230;2023-08-06T05:03:06;11.07;;;7.47;;
37609;SDS011;23457;51.966;8.230;2023-08-06T05:05:33;9.80;;;6.90;;
37609;SDS011;23457;51.966;8.230;2023-08-06T05:08:01;9.02;;;6.90;;
37609;SDS011;23457;51.966;8.230;2023-08-06T05:10:27;11.05;;;7.20;;
37609;SDS011;23457;51.966;8.230;2023-08-06T05:12:54;13.50;;;7.18;;
37609;SDS011;23457;51.966;8.230;2023-08-06T05:15:21;9.50;;;7.38;;
37609;SDS011;23457;51.966;8.230;2023-08-06T05:17:48;10.00;;;6.50;;
37609;SDS011;23457;51.966;8.230;2023-08-06T05:20:15;9.23;;;7.18;;
37609;SDS011;23457;51.966;8.230;2023-08-06T05:22:42;10.02;;;6.72;;
37609;SDS011;23457;51.966;8.230;2023-08-06T05:25:12;12.27;;;7.65;;
37609;SDS011;23457;51.966;8.230;2023-08-06T05:27:40;13.43;;;7.80;;
37609;SDS011;23457;51.966;8.230;2023-08-06T05:30:07;9.88;;;7.55;;
37609;SDS011;23457;51.966;8.230;2023-08-06T05:32:35;12.45;;;8.18;;
37609;SDS011;23457;51.966;8.230;2023-08-06T05:35:02;9.73;;;7.75;;
37609;SDS011;23457;51.966;8.230;2023-08-06T05:37:29;9.05;;;7.35;;
37609;SDS011;23457;51.966;8.230;2023-08-06T05:39:56;9.95;;;7.43;;
37609;SDS011;23457;51.966;8.230;2023-08-06T05:42:22;8.65;;;7.40;;
37609;SDS011;23457;51.966;8.230;2023-08-06T05:44:49;11.93;;;7.93;;
37609;SDS011;23457;51.966;8.230;2023-08-06T05:47:16;10.10;;;8.10;;
37609;SDS011;23457;51.966;8.230;2023-08-06T05:49:42;9.80;;;7.72;;
37609;SDS011;23457;51.966;8.230;2023-08-06T05:52:09;11.52;;;7.90;;
37609;SDS011;23457;51.966;8.230;2023-08-06T05:54:36;11.05;;;8.60;;
37609;SDS011;23457;51.966;8.230;2023-08-06T05:57:03;9.50;;;8.27;;
37609;SDS011;23457;51.966;8.230;2023-08-06T05:59:29;10.35;;;8.27;;
37609;SDS011;23457;51.966;8.230;2023-08-06T06:01:56;12.27;;;8.63;;
37609;SDS011;23457;51.966;8.230;2023-08-06T06:04:23;9.65;;;7.78;;
37609;SDS011;23457;51.966;8.230;2023-08-06T06:06:49;11.50;;;8.05;;
37609;SDS011;23457;51.966;8.230;2023-08-06T06:09:16;12.73;;;8.98;;
37609;SDS011;23457;51.966;8.230;2023-08-06T06:11:43;12.73;;;9.05;;
37609;SDS011;23457;51.966;8.230;2023-08-06T06:14:10;12.27;;;8.95;;
37609;SDS011;23457;51.966;8.230;2023-08-06T06:16:36;11.45;;;9.07;;
37609;SDS011;23457;51.966;8.230;2023-08-06T06:19:03;11.70;;;9.18;;
37609;SDS011;23457;51.966;8.230;2023-08-06T06:21:30;15.52;;;10.15;;
37609;SDS011;23457;51.966;8.230;2023-08-06T06:23:56;13.35;;;10.20;;
37609;SDS011;23457;51.966;8.230;2023-08-06T06:26:23;18.60;;;10.00;;
37609;SDS011;23457;51.966;8.230;2023-08-06T06:28:51;13.18;;;9.93;;
37609;SDS011;23457;51.966;8.230;2023-08-06T06:31:17;12.23;;;9.50;;
37609;SDS011;23457;51.966;8.230;2023-08-06T06:33:44;13.93;;;9.80;;
37609;SDS011;23457;51.966;8.230;2023-08-06T06:36:11;12.35;;;9.13;;
37609;SDS011;23457;51.966;8.230;2023-08-06T06:38:38;10.57;;;7.95;;
37609;SDS011;23457;51.966;8.230;2023-08-06T06:41:05;10.05;;;7.97;;
37609;SDS011;23457;51.966;8.230;2023-08-06T06:43:32;10.52;;;8.70;;
37609;SDS011;23457;51.966;8.230;2023-08-06T06:45:59;9.38;;;7.55;;
37609;SDS011;23457;51.966;8.230;2023-08-06T06:48:27;10.13;;;6.95;;
37609;SDS011;23457;51.966;8.230;2023-08-06T06:50:55;9.30;;;7.35;;
37609;SDS011;23457;51.966;8.230;2023-08-06T06:53:22;9.35;;;7.28;;
37609;SDS011;23457;51.966;8.230;2023-08-06T06:55:55;7.70;;;6.90;;
37609;SDS011;23457;51.966;8.230;2023-08-06T06:58:22;12.32;;;6.40;;
37609;SDS011;23457;51.966;8.230;2023-08-06T07:00:48;8.60;;;6.47;;
37609;SDS011;23457;51.966;8.230;2023-08-06T07:03:15;6.68;;;5.78;;
37609;SDS011;23457;51.966;8.230;2023-08-06T07:05:43;9.52;;;5.88;;
37609;SDS011;23457;51.966;8.230;2023-08-06T07:08:10;10.35;;;6.47;;
37609;SDS011;23457;51.966;8.230;2023-08-06T07:10:37;7.22;;;6.05;;
37609;SDS011;23457;51.966;8.230;2023-08-06T07:13:08;9.80;;;5.90;;
37609;SDS011;23457;51.966;8.230;2023-08-06T07:15:39;6.72;;;5.13;;
37609;SDS011;23457;51.966;8.230;2023-08-06T07:18:08;8.68;;;5.65;;
37609;SDS011;23457;51.966;8.230;2023-08-06T07:20:35;6.15;;;5.55;;
37609;SDS011;23457;51.966;8.230;2023-08-06T07:23:02;6.20;;;5.60;;
37609;SDS011;23457;51.966;8.230;2023-08-06T07:25:30;6.97;;;5.60;;
37609;SDS011;23457;51.966;8.230;2023-08-06T07:27:57;7.75;;;5.30;;
37609;SDS011;23457;51.966;8.230;2023-08-06T07:30:23;5.90;;;4.68;;
37609;SDS011;23457;51.966;8.230;2023-08-06T07:32:50;5.63;;;5.13;;
37609;SDS011;23457;51.966;8.230;2023-08-06T07:35:17;5.82;;;5.25;;
37609;SDS011;23457;51.966;8.230;2023-08-06T07:37:44;6.00;;;4.85;;
37609;SDS011;23457;51.966;8.230;2023-08-06T07:40:10;7.47;;;4.97;;
37609;SDS011;23457;51.966;8.230;2023-08-06T07:42:41;6.60;;;5.05;;
37609;SDS011;23457;51.966;8.230;2023-08-06T07:45:08;5.53;;;4.53;;
37609;SDS011;23457;51.966;8.230;2023-08-06T07:47:35;5.10;;;4.50;;
37609;SDS011;23457;51.966;8.230;2023-08-06T07:50:02;6.93;;;4.93;;
37609;SDS011;23457;51.966;8.230;2023-08-06T07:52:29;4.97;;;4.43;;
37609;SDS011;23457;51.966;8.230;2023-08-06T07:54:55;7.22;;;5.20;;
37609;SDS011;23457;51.966;8.230;2023-08-06T07:57:22;5.32;;;4.30;;
37609;SDS011;23457;51.966;8.230;2023-08-06T07:59:49;5.57;;;4.32;;
37609;SDS011;23457;51.966;8.230;2023-08-06T08:02:16;7.20;;;4.60;;
37609;SDS011;23457;51.966;8.230;2023-08-06T08:04:43;5.57;;;4.32;;
37609;SDS011;23457;51.966;8.230;2023-08-06T08:07:09;9.52;;;5.30;;
37609;SDS011;23457;51.966;8.230;2023-08-06T08:09:37;5.65;;;4.80;;
37609;SDS011;23457;51.966;8.230;2023-08-06T08:12:03;5.07;;;4.22;;
37609;SDS011;23457;51.966;8.230;2023-08-06T08:14:31;6.45;;;4.32;;
37609;SDS011;23457;51.966;8.230;2023-08-06T08:17:02;6.18;;;4.50;;
37609;SDS011;23457;51.966;8.230;2023-08-06T08:19:30;5.40;;;4.40;;
37609;SDS011;23457;51.966;8.230;2023-08-06T08:21:57;6.70;;;3.90;;
37609;SDS011;23457;51.966;8.230;2023-08-06T08:24:24;4.97;;;3.53;;
37609;SDS011;23457;51.966;8.230;2023-08-06T08:26:51;4.90;;;2.90;;
37609;SDS011;23457;51.966;8.230;2023-08-06T08:29:21;3.83;;;2.63;;
37609;SDS011;23457;51.966;8.230;2023-08-06T08:31:49;2.75;;;2.50;;
37609;SDS011;23457;51.966;8.230;2023-08-06T08:34:16;2.75;;;2.05;;
37609;SDS011;23457;51.966;8.230;2023-08-06T08:36:44;2.03;;;1.83;;
37609;SDS011;23457;51.966;8.230;2023-08-06T08:41:40;5.97;;;2.72;;
37609;SDS011;23457;51.966;8.230;2023-08-06T08:44:09;3.75;;;2.35;;
37609;SDS011;23457;51.966;8.230;2023-08-06T08:46:40;3.20;;;2.25;;
37609;SDS011;23457;51.966;8.230;2023-08-06T08:49:07;2.45;;;2.25;;
37609;SDS011;23457;51.966;8.230;2023-08-06T08:51:34;3.08;;;2.40;;
37609;SDS011;23457;51.966;8.230;2023-08-06T08:54:02;3.75;;;2.10;;
37609;SDS011;23457;51.966;8.230;2023-08-06T08:56:31;4.90;;;2.40;;
37609;SDS011;23457;51.966;8.230;2023-08-06T08:58:58;2.70;;;2.38;;
37609;SDS011;23457;51.966;8.230;2023-08-06T09:01:26;4.30;;;2.17;;
37609;SDS011;23457;51.966;8.230;2023-08-06T09:06:23;4.25;;;2.42;;
37609;SDS011;23457;51.966;8.230;2023-08-06T09:09:01;4.00;;;2.50;;
37609;SDS011;23457;51.966;8.230;2023-08-06T09:11:34;4.57;;;2.50;;
37609;SDS011;23457;51.966;8.230;2023-08-06T09:14:10;2.67;;;2.20;;
37609;SDS011;23457;51.966;8.230;2023-08-06T09:16:37;4.57;;;2.10;;
37609;SDS011;23457;51.966;8.230;2023-08-06T09:19:08;2.45;;;1.55;;
37609;SDS011;23457;51.966;8.230;2023-08-06T09:21:41;4.43;;;1.88;;
37609;SDS011;23457;51.966;8.230;2023-08-06T09:24:09;2.20;;;2.00;;
37609;SDS011;23457;51.966;8.230;2023-08-06T09:26:40;3.70;;;2.05;;
37609;SDS011;23457;51.966;8.230;2023-08-06T09:29:08;2.22;;;2.00;;
37609;SDS011;23457;51.966;8.230;2023-08-06T09:34:20;3.67;;;2.20;;
37609;SDS011;23457;51.966;8.230;2023-08-06T09:36:49;2.55;;;2.05;;
37609;SDS011;23457;51.966;8.230;2023-08-06T09:39:18;4.40;;;2.10;;
37609;SDS011;23457;51.966;8.230;2023-08-06T09:41:59;3.63;;;2.30;;
37609;SDS011;23457;51.966;8.230;2023-08-06T09:44:28;5.18;;;2.03;;
37609;SDS011;23457;51.966;8.230;2023-08-06T09:54:23;4.28;;;2.33;;
37609;SDS011;23457;51.966;8.230;2023-08-06T09:56:54;3.00;;;2.03;;
37609;SDS011;23457;51.966;8.230;2023-08-06T09:59:22;2.75;;;1.80;;
37609;SDS011;23457;51.966;8.230;2023-08-06T10:01:50;3.30;;;1.75;;
37609;SDS011;23457;51.966;8.230;2023-08-06T10:04:19;2.33;;;1.90;;
37609;SDS011;23457;51.966;8.230;2023-08-06T10:06:50;3.25;;;2.00;;
37609;SDS011;23457;51.966;8.230;2023-08-06T10:09:17;3.28;;;2.15;;
37609;SDS011;23457;51.966;8.230;2023-08-06T10:11:47;1.75;;;1.60;;
37609;SDS011;23457;51.966;8.230;2023-08-06T10:14:28;2.08;;;1.70;;
37609;SDS011;23457;51.966;8.230;2023-08-06T10:17:00;3.15;;;2.00;;
37609;SDS011;23457;51.966;8.230;2023-08-06T10:19:29;2.83;;;1.88;;
37609;SDS011;23457;51.966;8.230;2023-08-06T10:22:16;2.20;;;2.00;;
37609;SDS011;23457;51.966;8.230;2023-08-06T10:27:19;3.25;;;1.90;;
37609;SDS011;23457;51.966;8.230;2023-08-06T10:29:47;2.75;;;2.10;;
37609;SDS011;23457;51.966;8.230;2023-08-06T10:32:13;4.22;;;2.00;;
37609;SDS011;23457;51.966;8.230;2023-08-06T10:34:57;3.15;;;1.95;;
37609;SDS011;23457;51.966;8.230;2023-08-06T10:37:27;2.28;;;1.83;;
37609;SDS011;23457;51.966;8.230;2023-08-06T10:40:01;3.25;;;1.90;;
37609;SDS011;23457;51.966;8.230;2023-08-06T10:42:30;4.25;;;2.13;;
37609;SDS011;23457;51.966;8.230;2023-08-06T10:45:15;3.10;;;1.80;;
37609;SDS011;23457;51.966;8.230;2023-08-06T10:47:43;2.30;;;1.60;;
37609;SDS011;23457;51.966;8.230;2023-08-06T10:50:11;3.47;;;1.77;;
37609;SDS011;23457;51.966;8.230;2023-08-06T10:52:46;7.00;;;1.80;;
37609;SDS011;23457;51.966;8.230;2023-08-06T10:55:14;3.22;;;1.77;;
37609;SDS011;23457;51.966;8.230;2023-08-06T10:57:48;4.05;;;1.83;;
37609;SDS011;23457;51.966;8.230;2023-08-06T11:00:14;2.72;;;1.77;;
37609;SDS011;23457;51.966;8.230;2023-08-06T11:02:42;2.10;;;1.73;;
37609;SDS011;23457;51.966;8.230;2023-08-06T11:05:13;2.58;;;1.83;;
37609;SDS011;23457;51.966;8.230;2023-08-06T11:07:40;5.47;;;2.10;;
37609;SDS011;23457;51.966;8.230;2023-08-06T11:10:07;2.80;;;1.75;;
37609;SDS011;23457;51.966;8.230;2023-08-06T11:12:36;4.70;;;1.80;;
37609;SDS011;23457;51.966;8.230;2023-08-06T11:15:03;2.75;;;1.80;;
37609;SDS011;23457;51.966;8.230;2023-08-06T11:17:31;2.65;;;2.00;;
37609;SDS011;23457;51.966;8.230;2023-08-06T11:20:00;3.73;;;2.00;;
37609;SDS011;23457;51.966;8.230;2023-08-06T11:22:28;3.90;;;1.48;;
37609;SDS011;23457;51.966;8.230;2023-08-06T11:24:55;3.35;;;1.63;;
37609;SDS011;23457;51.966;8.230;2023-08-06T11:27:22;5.30;;;1.88;;
37609;SDS011;23457;51.966;8.230;2023-08-06T11:29:49;2.08;;;1.52;;
37609;SDS011;23457;51.966;8.230;2023-08-06T11:32:16;5.60;;;1.95;;
37609;SDS011;23457;51.966;8.230;2023-08-06T11:34:43;2.47;;;1.60;;
37609;SDS011;23457;51.966;8.230;2023-08-06T11:37:10;4.88;;;1.80;;
37609;SDS011;23457;51.966;8.230;2023-08-06T11:39:38;3.95;;;1.95;;
37609;SDS011;23457;51.966;8.230;2023-08-06T11:42:05;1.95;;;1.73;;
37609;SDS011;23457;51.966;8.230;2023-08-06T11:44:36;3.35;;;1.83;;
37609;SDS011;23457;51.966;8.230;2023-08-06T11:47:04;2.97;;;1.77;;
37609;SDS011;23457;51.966;8.230;2023-08-06T11:52:09;2.97;;;1.77;;
37609;SDS011;23457;51.966;8.230;2023-08-06T11:54:38;4.15;;;1.90;;
37609;SDS011;23457;51.966;8.230;2023-08-06T11:57:05;2.20;;;1.95;;
37609;SDS011;23457;51.966;8.230;2023-08-06T11:59:32;2.47;;;2.05;;
37609;SDS011;23457;51.966;8.230;2023-08-06T12:02:02;3.03;;;1.80;;
37609;SDS011;23457;51.966;8.230;2023-08-06T12:04:56;3.58;;;1.75;;
37609;SDS011;23457;51.966;8.230;2023-08-06T12:07:28;2.97;;;1.73;;
37609;SDS011;23457;51.966;8.230;2023-08-06T12:12:23;4.25;;;2.00;;
37609;SDS011;23457;51.966;8.230;2023-08-06T12:14:50;3.08;;;1.80;;
37609;SDS011;23457;51.966;8.230;2023-08-06T12:17:17;5.78;;;1.80;;
37609;SDS011;23457;51.966;8.230;2023-08-06T12:19:44;2.47;;;1.70;;
37609;SDS011;23457;51.966;8.230;2023-08-06T12:22:13;2.30;;;1.60;;
37609;SDS011;23457;51.966;8.230;2023-08-06T12:24:41;3.58;;;1.90;;
37609;SDS011;23457;51.966;8.230;2023-08-06T12:27:09;2.80;;;1.63;;
37609;SDS011;23457;51.966;8.230;2023-08-06T12:29:43;2.67;;;1.77;;
37609;SDS011;23457;51.966;8.230;2023-08-06T12:32:11;1.83;;;1.48;;
37609;SDS011;23457;51.966;8.230;2023-08-06T12:34:38;5.85;;;1.70;;
37609;SDS011;23457;51.966;8.230;2023-08-06T12:37:18;1.50;;;1.40;;
37609;SDS011;23457;51.966;8.230;2023-08-06T12:39:45;2.75;;;1.35;;
37609;SDS011;23457;51.966;8.230;2023-08-06T12:42:11;0.88;;;0.88;;
37609;SDS011;23457;51.966;8.230;2023-08-06T12:44:39;1.88;;;1.35;;
37609;SDS011;23457;51.966;8.230;2023-08-06T12:47:06;1.45;;;1.10;;
37609;SDS011;23457;51.966;8.230;2023-08-06T12:49:33;6.25;;;1.95;;
37609;SDS011;23457;51.966;8.230;2023-08-06T12:52:00;3.50;;;2.45;;
37609;SDS011;23457;51.966;8.230;2023-08-06T12:54:27;4.15;;;2.63;;
37609;SDS011;23457;51.966;8.230;2023-08-06T12:56:54;4.82;;;2.90;;
37609;SDS011;23457;51.966;8.230;2023-08-06T12:59:21;3.55;;;2.38;;
37609;SDS011;23457;51.966;8.230;2023-08-06T13:01:48;4.00;;;2.40;;
37609;SDS011;23457;51.966;8.230;2023-08-06T13:04:15;5.28;;;2.42;;
37609;SDS011;23457;51.966;8.230;2023-08-06T13:06:48;3.22;;;2.50;;
37609;SDS011;23457;51.966;8.230;2023-08-06T13:09:15;6.22;;;2.80;;
37609;SDS011;23457;51.966;8.230;2023-08-06T13:11:43;3.55;;;2.28;;
37609;SDS011;23457;51.966;8.230;2023-08-06T13:14:13;7.43;;;2.60;;
37609;SDS011;23457;51.966;8.230;2023-08-06T13:16:41;5.20;;;3.45;;
37609;SDS011;23457;51.966;8.230;2023-08-06T13:19:09;7.13;;;3.20;;
37609;SDS011;23457;51.966;8.230;2023-08-06T13:24:16;5.45;;;2.53;;
37609;SDS011;23457;51.966;8.230;2023-08-06T13:26:43;5.70;;;2.45;;
37609;SDS011;23457;51.966;8.230;2023-08-06T13:29:10;4.10;;;2.35;;
37609;SDS011;23457;51.966;8.230;2023-08-06T13:31:37;5.20;;;2.92;;
37609;SDS011;23457;51.966;8.230;2023-08-06T13:34:04;6.28;;;3.25;;
37609;SDS011;23457;51.966;8.230;2023-08-06T13:36:31;6.60;;;3.10;;
37609;SDS011;23457;51.966;8.230;2023-08-06T13:38:58;4.50;;;3.30;;
37609;SDS011;23457;51.966;8.230;2023-08-06T13:41:24;6.82;;;3.25;;
37609;SDS011;23457;51.966;8.230;2023-08-06T13:43:51;3.50;;;3.17;;
37609;SDS011;23457;51.966;8.230;2023-08-06T13:46:18;5.47;;;3.60;;
37609;SDS011;23457;51.966;8.230;2023-08-06T13:48:47;4.47;;;3.65;;
37609;SDS011;23457;51.966;8.230;2023-08-06T13:51:17;5.35;;;3.47;;
37609;SDS011;23457;51.966;8.230;2023-08-06T13:53:44;5.05;;;3.80;;
37609;SDS011;23457;51.966;8.230;2023-08-06T13:56:11;7.95;;;3.83;;
37609;SDS011;23457;51.966;8.230;2023-08-06T13:58:38;6.32;;;4.20;;
37609;SDS011;23457;51.966;8.230;2023-08-06T14:01:05;5.43;;;4.20;;
37609;SDS011;23457;51.966;8.230;2023-08-06T14:03:35;7.57;;;4.93;;
37609;SDS011;23457;51.966;8.230;2023-08-06T14:06:02;5.22;;;4.45;;
37609;SDS011;23457;51.966;8.230;2023-08-06T14:08:29;6.90;;;4.43;;
37609;SDS011;23457;51.966;8.230;2023-08-06T14:10:56;6.30;;;5.03;;
37609;SDS011;23457;51.966;8.230;2023-08-06T14:13:23;6.80;;;4.88;;
37609;SDS011;23457;51.966;8.230;2023-08-06T14:15:49;6.35;;;4.68;;
37609;SDS011;23457;51.966;8.230;2023-08-06T14:18:16;6.78;;;4.53;;
37609;SDS011;23457;51.966;8.230;2023-08-06T14:20:43;7.00;;;4.53;;
37609;SDS011;23457;51.966;8.230;2023-08-06T14:23:10;9.07;;;4.43;;
37609;SDS011;23457;51.966;8.230;2023-08-06T14:25:38;5.60;;;4.10;;
37609;SDS011;23457;51.966;8.230;2023-08-06T14:28:05;3.70;;;3.40;;
37609;SDS011;23457;51.966;8.230;2023-08-06T14:30:33;4.28;;;3.55;;
37609;SDS011;23457;51.966;8.230;2023-08-06T14:33:01;5.65;;;3.50;;
37609;SDS011;23457;51.966;8.230;2023-08-06T14:35:42;3.65;;;3.15;;
37609;SDS011;23457;51.966;8.230;2023-08-06T14:38:09;5.63;;;3.67;;
37609;SDS011;23457;51.966;8.230;2023-08-06T14:40:35;4.93;;;3.58;;
37609;SDS011;23457;51.966;8.230;2023-08-06T14:43:07;10.00;;;5.13;;
37609;SDS011;23457;51.966;8.230;2023-08-06T14:45:37;6.07;;;4.18;;
37609;SDS011;23457;51.966;8.230;2023-08-06T14:48:04;4.07;;;3.42;;
37609;SDS011;23457;51.966;8.230;2023-08-06T14:50:31;5.07;;;4.10;;
37609;SDS011;23457;51.966;8.230;2023-08-06T14:52:58;4.45;;;3.63;;
37609;SDS011;23457;51.966;8.230;2023-08-06T14:55:30;4.28;;;3.88;;
37609;SDS011;23457;51.966;8.230;2023-08-06T14:57:58;7.72;;;3.90;;
37609;SDS011;23457;51.966;8.230;2023-08-06T15:00:27;6.13;;;4.00;;
37609;SDS011;23457;51.966;8.230;2023-08-06T15:02:54;4.43;;;3.67;;
37609;SDS011;23457;51.966;8.230;2023-08-06T15:05:21;2.97;;;2.63;;
37609;SDS011;23457;51.966;8.230;2023-08-06T15:07:48;5.10;;;3.00;;
37609;SDS011;23457;51.966;8.230;2023-08-06T15:10:14;5.03;;;3.10;;
37609;SDS011;23457;51.966;8.230;2023-08-06T15:12:45;4.68;;;2.70;;
37609;SDS011;23457;51.966;8.230;2023-08-06T15:15:11;2.72;;;2.45;;
37609;SDS011;23457;51.966;8.230;2023-08-06T15:17:38;3.08;;;2.75;;
37609;SDS011;23457;51.966;8.230;2023-08-06T15:20:05;3.25;;;2.40;;
37609;SDS011;23457;51.966;8.230;2023-08-06T15:22:32;7.57;;;2.72;;
37609;SDS011;23457;51.966;8.230;2023-08-06T15:24:59;4.40;;;2.72;;